sensor_id;sensor_type;location;lat;lon;timestamp;P1;durP1;ratioP1;P2;durP2;ratioP2
43877;SDS011;29815;48.184;11.268;2023-10-08T00:02:17;6.03;;;3.83;;
43877;SDS011;29815;48.184;11.268;2023-10-08T00:04:51;5.75;;;3.20;;
43877;SDS011;29815;48.184;11.268;2023-10-08T00:07:21;5.50;;;3.20;;
43877;SDS011;29815;48.184;11.268;2023-10-08T00:09:52;5.47;;;3.53;;
43877;SDS011;29815;48.184;11.268;2023-10-08T00:12:21;5.32;;;2.97;;
43877;SDS011;29815;48.184;11.268;2023-10-08T00:14:51;6.43;;;4.57;;
43877;SDS011;29815;48.184;11.268;2023-10-08T00:17:22;5.93;;;2.97;;
43877;SDS011;29815;48.184;11.268;2023-10-08T00:19:53;7.55;;;3.67;;
43877;SDS011;29815;48.184;11.268;2023-10-08T00:22:28;6.13;;;3.85;;
43877;SDS011;29815;48.184;11.268;2023-10-08T00:25:03;8.27;;;4.25;;
43877;SDS011;29815;48.184;11.268;2023-10-08T00:27:39;5.47;;;3.55;;
43877;SDS011;29815;48.184;11.268;2023-10-08T00:30:09;6.90;;;3.55;;
43877;SDS011;29815;48.184;11.268;2023-10-08T00:32:45;5.43;;;3.10;;
43877;SDS011;29815;48.184;11.268;2023-10-08T00:35:16;5.07;;;3.13;;
43877;SDS011;29815;48.184;11.268;2023-10-08T00:40:17;5.53;;;3.22;;
43877;SDS011;29815;48.184;11.268;2023-10-08T00:42:49;8.25;;;3.55;;
43877;SDS011;29815;48.184;11.268;2023-10-08T00:45:24;5.93;;;3.50;;
43877;SDS011;29815;48.184;11.268;2023-10-08T00:47:57;7.20;;;3.55;;
43877;SDS011;29815;48.184;11.268;2023-10-08T00:50:29;9.98;;;3.97;;
43877;SDS011;29815;48.184;11.268;2023-10-08T00:53:10;6.25;;;3.53;;
43877;SDS011;29815;48.184;11.268;2023-10-08T00:55:49;16.25;;;4.80;;
43877;SDS011;29815;48.184;11.268;2023-10-08T00:58:21;7.07;;;3.55;;
43877;SDS011;29815;48.184;11.268;2023-10-08T01:00:54;6.72;;;3.38;;
43877;SDS011;29815;48.184;11.268;2023-10-08T01:05:58;6.55;;;3.45;;
43877;SDS011;29815;48.184;11.268;2023-10-08T01:08:27;6.25;;;3.83;;
43877;SDS011;29815;48.184;11.268;2023-10-08T01:11:16;5.90;;;3.22;;
43877;SDS011;29815;48.184;11.268;2023-10-08T01:13:49;5.80;;;3.30;;
43877;SDS011;29815;48.184;11.268;2023-10-08T01:16:19;6.70;;;3.45;;
43877;SDS011;29815;48.184;11.268;2023-10-08T01:18:48;7.45;;;3.72;;
43877;SDS011;29815;48.184;11.268;2023-10-08T01:21:23;9.75;;;3.65;;
43877;SDS011;29815;48.184;11.268;2023-10-08T01:24:03;8.57;;;3.88;;
43877;SDS011;29815;48.184;11.268;2023-10-08T01:26:34;9.02;;;3.88;;
43877;SDS011;29815;48.184;11.268;2023-10-08T01:29:10;6.07;;;3.05;;
43877;SDS011;29815;48.184;11.268;2023-10-08T01:31:47;7.47;;;3.85;;
43877;SDS011;29815;48.184;11.268;2023-10-08T01:34:17;8.10;;;3.65;;
43877;SDS011;29815;48.184;11.268;2023-10-08T01:36:55;9.77;;;3.30;;
43877;SDS011;29815;48.184;11.268;2023-10-08T01:39:32;4.32;;;2.50;;
43877;SDS011;29815;48.184;11.268;2023-10-08T01:42:01;6.15;;;3.22;;
43877;SDS011;29815;48.184;11.268;2023-10-08T01:44:32;6.95;;;4.05;;
43877;SDS011;29815;48.184;11.268;2023-10-08T01:47:02;5.28;;;3.65;;
43877;SDS011;29815;48.184;11.268;2023-10-08T01:49:33;7.38;;;3.30;;
43877;SDS011;29815;48.184;11.268;2023-10-08T01:52:06;5.13;;;2.92;;
43877;SDS011;29815;48.184;11.268;2023-10-08T01:54:41;7.13;;;3.13;;
43877;SDS011;29815;48.184;11.268;2023-10-08T01:57:11;6.05;;;3.42;;
43877;SDS011;29815;48.184;11.268;2023-10-08T01:59:42;8.40;;;3.72;;
43877;SDS011;29815;48.184;11.268;2023-10-08T02:02:12;5.75;;;3.05;;
43877;SDS011;29815;48.184;11.268;2023-10-08T02:04:43;7.00;;;3.80;;
43877;SDS011;29815;48.184;11.268;2023-10-08T02:07:12;7.22;;;3.00;;
43877;SDS011;29815;48.184;11.268;2023-10-08T02:09:43;6.32;;;3.30;;
43877;SDS011;29815;48.184;11.268;2023-10-08T02:12:14;5.67;;;3.03;;
43877;SDS011;29815;48.184;11.268;2023-10-08T02:14:44;6.95;;;3.17;;
43877;SDS011;29815;48.184;11.268;2023-10-08T02:17:13;5.15;;;3.22;;
43877;SDS011;29815;48.184;11.268;2023-10-08T02:19:43;6.82;;;3.75;;
43877;SDS011;29815;48.184;11.268;2023-10-08T02:22:13;5.63;;;3.25;;
43877;SDS011;29815;48.184;11.268;2023-10-08T02:24:44;6.88;;;3.40;;
43877;SDS011;29815;48.184;11.268;2023-10-08T02:27:13;9.63;;;3.75;;
43877;SDS011;29815;48.184;11.268;2023-10-08T02:29:43;6.13;;;3.20;;
43877;SDS011;29815;48.184;11.268;2023-10-08T02:32:16;6.28;;;3.65;;
43877;SDS011;29815;48.184;11.268;2023-10-08T02:34:46;6.28;;;3.25;;
43877;SDS011;29815;48.184;11.268;2023-10-08T02:37:16;7.45;;;3.83;;
43877;SDS011;29815;48.184;11.268;2023-10-08T02:39:48;6.25;;;3.25;;
43877;SDS011;29815;48.184;11.268;2023-10-08T02:42:18;6.13;;;3.28;;
43877;SDS011;29815;48.184;11.268;2023-10-08T02:44:48;4.72;;;2.88;;
43877;SDS011;29815;48.184;11.268;2023-10-08T02:47:18;6.28;;;3.67;;
43877;SDS011;29815;48.184;11.268;2023-10-08T02:49:48;5.75;;;3.80;;
43877;SDS011;29815;48.184;11.268;2023-10-08T02:52:19;8.02;;;3.70;;
43877;SDS011;29815;48.184;11.268;2023-10-08T02:54:50;7.50;;;3.85;;
43877;SDS011;29815;48.184;11.268;2023-10-08T02:57:20;8.98;;;4.50;;
43877;SDS011;29815;48.184;11.268;2023-10-08T02:59:50;6.18;;;3.35;;
43877;SDS011;29815;48.184;11.268;2023-10-08T03:02:21;6.03;;;3.28;;
43877;SDS011;29815;48.184;11.268;2023-10-08T03:04:52;5.82;;;3.08;;
43877;SDS011;29815;48.184;11.268;2023-10-08T03:07:23;4.70;;;3.10;;
43877;SDS011;29815;48.184;11.268;2023-10-08T03:10:02;5.45;;;2.88;;
43877;SDS011;29815;48.184;11.268;2023-10-08T03:12:34;6.97;;;2.88;;
43877;SDS011;29815;48.184;11.268;2023-10-08T03:15:04;8.27;;;3.33;;
43877;SDS011;29815;48.184;11.268;2023-10-08T03:17:55;6.38;;;2.88;;
43877;SDS011;29815;48.184;11.268;2023-10-08T03:20:37;6.65;;;3.50;;
43877;SDS011;29815;48.184;11.268;2023-10-08T03:23:11;6.95;;;3.20;;
43877;SDS011;29815;48.184;11.268;2023-10-08T03:25:54;10.73;;;3.53;;
43877;SDS011;29815;48.184;11.268;2023-10-08T03:28:27;5.53;;;3.20;;
43877;SDS011;29815;48.184;11.268;2023-10-08T03:31:02;5.20;;;2.88;;
43877;SDS011;29815;48.184;11.268;2023-10-08T03:33:33;6.07;;;2.42;;
43877;SDS011;29815;48.184;11.268;2023-10-08T03:36:06;10.60;;;3.55;;
43877;SDS011;29815;48.184;11.268;2023-10-08T03:38:41;7.15;;;3.20;;
43877;SDS011;29815;48.184;11.268;2023-10-08T03:41:21;9.75;;;4.03;;
43877;SDS011;29815;48.184;11.268;2023-10-08T03:43:56;7.80;;;3.17;;
43877;SDS011;29815;48.184;11.268;2023-10-08T03:46:33;9.10;;;3.50;;
43877;SDS011;29815;48.184;11.268;2023-10-08T03:49:07;5.32;;;3.03;;
43877;SDS011;29815;48.184;11.268;2023-10-08T03:51:42;7.30;;;3.25;;
43877;SDS011;29815;48.184;11.268;2023-10-08T03:54:13;6.30;;;3.13;;
43877;SDS011;29815;48.184;11.268;2023-10-08T03:56:48;6.90;;;2.90;;
43877;SDS011;29815;48.184;11.268;2023-10-08T03:59:19;7.22;;;3.20;;
43877;SDS011;29815;48.184;11.268;2023-10-08T04:01:58;6.60;;;3.03;;
43877;SDS011;29815;48.184;11.268;2023-10-08T04:04:41;6.10;;;3.42;;
43877;SDS011;29815;48.184;11.268;2023-10-08T04:07:19;5.22;;;2.35;;
43877;SDS011;29815;48.184;11.268;2023-10-08T04:10:12;5.13;;;2.95;;
43877;SDS011;29815;48.184;11.268;2023-10-08T04:13:18;6.88;;;2.80;;
43877;SDS011;29815;48.184;11.268;2023-10-08T04:15:47;6.07;;;2.88;;
43877;SDS011;29815;48.184;11.268;2023-10-08T04:18:17;6.55;;;3.08;;
43877;SDS011;29815;48.184;11.268;2023-10-08T04:20:48;6.05;;;3.17;;
43877;SDS011;29815;48.184;11.268;2023-10-08T04:23:28;10.45;;;4.00;;
43877;SDS011;29815;48.184;11.268;2023-10-08T04:25:58;5.72;;;3.88;;
43877;SDS011;29815;48.184;11.268;2023-10-08T04:28:28;7.45;;;3.92;;
43877;SDS011;29815;48.184;11.268;2023-10-08T04:31:02;8.75;;;3.25;;
43877;SDS011;29815;48.184;11.268;2023-10-08T04:33:43;8.32;;;3.67;;
43877;SDS011;29815;48.184;11.268;2023-10-08T04:36:14;9.55;;;3.95;;
43877;SDS011;29815;48.184;11.268;2023-10-08T04:41:21;9.60;;;3.65;;
43877;SDS011;29815;48.184;11.268;2023-10-08T04:43:57;5.72;;;2.85;;
43877;SDS011;29815;48.184;11.268;2023-10-08T04:46:30;5.03;;;3.13;;
43877;SDS011;29815;48.184;11.268;2023-10-08T04:49:15;6.03;;;3.15;;
43877;SDS011;29815;48.184;11.268;2023-10-08T04:51:58;5.10;;;2.95;;
43877;SDS011;29815;48.184;11.268;2023-10-08T04:54:36;6.15;;;3.10;;
43877;SDS011;29815;48.184;11.268;2023-10-08T04:57:07;6.43;;;3.17;;
43877;SDS011;29815;48.184;11.268;2023-10-08T04:59:44;7.75;;;3.63;;
43877;SDS011;29815;48.184;11.268;2023-10-08T05:02:17;5.75;;;3.20;;
43877;SDS011;29815;48.184;11.268;2023-10-08T05:04:48;8.05;;;3.90;;
43877;SDS011;29815;48.184;11.268;2023-10-08T05:07:45;8.88;;;3.83;;
43877;SDS011;29815;48.184;11.268;2023-10-08T05:10:45;5.53;;;3.15;;
43877;SDS011;29815;48.184;11.268;2023-10-08T05:24:03;6.25;;;3.30;;
43877;SDS011;29815;48.184;11.268;2023-10-08T05:26:40;8.25;;;3.10;;
43877;SDS011;29815;48.184;11.268;2023-10-08T05:29:11;7.80;;;2.88;;
43877;SDS011;29815;48.184;11.268;2023-10-08T05:31:59;6.10;;;3.35;;
43877;SDS011;29815;48.184;11.268;2023-10-08T05:34:42;7.63;;;2.80;;
43877;SDS011;29815;48.184;11.268;2023-10-08T05:37:18;7.30;;;3.53;;
43877;SDS011;29815;48.184;11.268;2023-10-08T05:40:07;8.00;;;3.53;;
43877;SDS011;29815;48.184;11.268;2023-10-08T05:42:49;5.50;;;3.30;;
43877;SDS011;29815;48.184;11.268;2023-10-08T05:45:30;6.07;;;3.60;;
43877;SDS011;29815;48.184;11.268;2023-10-08T05:48:03;5.95;;;2.53;;
43877;SDS011;29815;48.184;11.268;2023-10-08T05:50:41;7.43;;;3.10;;
43877;SDS011;29815;48.184;11.268;2023-10-08T05:53:40;5.65;;;2.70;;
43877;SDS011;29815;48.184;11.268;2023-10-08T05:56:13;5.70;;;3.10;;
43877;SDS011;29815;48.184;11.268;2023-10-08T05:58:56;5.50;;;3.28;;
43877;SDS011;29815;48.184;11.268;2023-10-08T06:01:41;6.13;;;2.88;;
43877;SDS011;29815;48.184;11.268;2023-10-08T06:04:13;5.45;;;3.42;;
43877;SDS011;29815;48.184;11.268;2023-10-08T06:07:20;5.60;;;3.20;;
43877;SDS011;29815;48.184;11.268;2023-10-08T06:10:01;6.20;;;3.33;;
43877;SDS011;29815;48.184;11.268;2023-10-08T06:12:42;7.55;;;3.75;;
43877;SDS011;29815;48.184;11.268;2023-10-08T06:15:17;6.95;;;4.18;;
43877;SDS011;29815;48.184;11.268;2023-10-08T06:18:04;6.20;;;3.05;;
43877;SDS011;29815;48.184;11.268;2023-10-08T06:20:36;6.28;;;3.67;;
43877;SDS011;29815;48.184;11.268;2023-10-08T06:23:08;5.75;;;3.20;;
43877;SDS011;29815;48.184;11.268;2023-10-08T06:25:41;7.80;;;3.08;;
43877;SDS011;29815;48.184;11.268;2023-10-08T06:28:15;6.22;;;3.08;;
43877;SDS011;29815;48.184;11.268;2023-10-08T06:30:48;8.90;;;3.53;;
43877;SDS011;29815;48.184;11.268;2023-10-08T06:33:21;6.03;;;3.72;;
43877;SDS011;29815;48.184;11.268;2023-10-08T06:35:58;6.85;;;3.25;;
43877;SDS011;29815;48.184;11.268;2023-10-08T06:38:31;4.68;;;2.78;;
43877;SDS011;29815;48.184;11.268;2023-10-08T06:41:02;4.70;;;2.78;;
43877;SDS011;29815;48.184;11.268;2023-10-08T06:43:39;8.07;;;3.85;;
43877;SDS011;29815;48.184;11.268;2023-10-08T06:46:12;6.35;;;3.58;;
43877;SDS011;29815;48.184;11.268;2023-10-08T06:48:43;7.00;;;3.42;;
43877;SDS011;29815;48.184;11.268;2023-10-08T06:51:16;8.90;;;3.42;;
43877;SDS011;29815;48.184;11.268;2023-10-08T06:53:46;4.85;;;2.40;;
43877;SDS011;29815;48.184;11.268;2023-10-08T06:56:17;9.52;;;3.95;;
43877;SDS011;29815;48.184;11.268;2023-10-08T06:58:48;13.13;;;4.25;;
43877;SDS011;29815;48.184;11.268;2023-10-08T07:01:20;6.43;;;3.28;;
43877;SDS011;29815;48.184;11.268;2023-10-08T07:03:53;8.85;;;3.55;;
43877;SDS011;29815;48.184;11.268;2023-10-08T07:06:31;8.05;;;3.15;;
43877;SDS011;29815;48.184;11.268;2023-10-08T07:09:05;8.45;;;3.47;;
43877;SDS011;29815;48.184;11.268;2023-10-08T07:11:50;9.10;;;3.08;;
43877;SDS011;29815;48.184;11.268;2023-10-08T07:14:28;7.72;;;3.88;;
43877;SDS011;29815;48.184;11.268;2023-10-08T07:16:59;6.95;;;3.22;;
43877;SDS011;29815;48.184;11.268;2023-10-08T07:19:34;7.90;;;3.20;;
43877;SDS011;29815;48.184;11.268;2023-10-08T07:22:07;9.48;;;4.15;;
43877;SDS011;29815;48.184;11.268;2023-10-08T07:24:50;6.93;;;3.60;;
43877;SDS011;29815;48.184;11.268;2023-10-08T07:27:20;6.55;;;3.60;;
43877;SDS011;29815;48.184;11.268;2023-10-08T07:29:59;9.43;;;4.07;;
43877;SDS011;29815;48.184;11.268;2023-10-08T07:32:31;7.30;;;3.67;;
43877;SDS011;29815;48.184;11.268;2023-10-08T07:35:02;6.13;;;3.60;;
43877;SDS011;29815;48.184;11.268;2023-10-08T07:37:50;10.43;;;4.40;;
43877;SDS011;29815;48.184;11.268;2023-10-08T07:40:22;6.55;;;3.25;;
43877;SDS011;29815;48.184;11.268;2023-10-08T07:42:56;10.70;;;3.78;;
43877;SDS011;29815;48.184;11.268;2023-10-08T07:45:38;7.70;;;4.03;;
43877;SDS011;29815;48.184;11.268;2023-10-08T07:48:12;6.75;;;3.20;;
43877;SDS011;29815;48.184;11.268;2023-10-08T07:50:44;12.02;;;3.60;;
43877;SDS011;29815;48.184;11.268;2023-10-08T07:53:14;8.48;;;3.75;;
43877;SDS011;29815;48.184;11.268;2023-10-08T07:55:46;7.30;;;3.28;;
43877;SDS011;29815;48.184;11.268;2023-10-08T07:58:16;9.77;;;4.40;;
43877;SDS011;29815;48.184;11.268;2023-10-08T08:00:48;9.70;;;3.55;;
43877;SDS011;29815;48.184;11.268;2023-10-08T08:03:22;8.23;;;3.78;;
43877;SDS011;29815;48.184;11.268;2023-10-08T08:05:52;9.73;;;3.33;;
43877;SDS011;29815;48.184;11.268;2023-10-08T08:08:22;11.60;;;4.67;;
43877;SDS011;29815;48.184;11.268;2023-10-08T08:13:34;10.40;;;4.28;;
43877;SDS011;29815;48.184;11.268;2023-10-08T08:16:05;9.90;;;3.78;;
43877;SDS011;29815;48.184;11.268;2023-10-08T08:18:44;7.35;;;3.50;;
43877;SDS011;29815;48.184;11.268;2023-10-08T08:21:14;12.82;;;4.88;;
43877;SDS011;29815;48.184;11.268;2023-10-08T08:23:47;10.85;;;3.95;;
43877;SDS011;29815;48.184;11.268;2023-10-08T08:26:18;12.32;;;4.05;;
43877;SDS011;29815;48.184;11.268;2023-10-08T08:29:07;8.57;;;3.10;;
43877;SDS011;29815;48.184;11.268;2023-10-08T08:31:44;11.93;;;3.97;;
43877;SDS011;29815;48.184;11.268;2023-10-08T08:34:14;9.95;;;4.00;;
43877;SDS011;29815;48.184;11.268;2023-10-08T08:36:47;9.60;;;4.15;;
43877;SDS011;29815;48.184;11.268;2023-10-08T08:39:16;11.25;;;3.58;;
43877;SDS011;29815;48.184;11.268;2023-10-08T08:42:00;16.27;;;4.93;;
43877;SDS011;29815;48.184;11.268;2023-10-08T08:44:33;9.88;;;3.90;;
43877;SDS011;29815;48.184;11.268;2023-10-08T08:47:13;9.55;;;4.95;;
43877;SDS011;29815;48.184;11.268;2023-10-08T08:49:45;11.18;;;4.97;;
43877;SDS011;29815;48.184;11.268;2023-10-08T08:52:16;10.30;;;3.80;;
43877;SDS011;29815;48.184;11.268;2023-10-08T08:54:45;10.88;;;4.35;;
43877;SDS011;29815;48.184;11.268;2023-10-08T08:57:15;12.23;;;3.35;;
43877;SDS011;29815;48.184;11.268;2023-10-08T08:59:47;10.30;;;4.03;;
43877;SDS011;29815;48.184;11.268;2023-10-08T09:02:24;11.02;;;4.97;;
43877;SDS011;29815;48.184;11.268;2023-10-08T09:04:53;12.07;;;4.50;;
43877;SDS011;29815;48.184;11.268;2023-10-08T09:07:23;9.68;;;4.25;;
43877;SDS011;29815;48.184;11.268;2023-10-08T09:09:56;12.95;;;3.60;;
43877;SDS011;29815;48.184;11.268;2023-10-08T09:15:00;7.90;;;3.58;;
43877;SDS011;29815;48.184;11.268;2023-10-08T09:17:33;9.07;;;3.53;;
43877;SDS011;29815;48.184;11.268;2023-10-08T09:20:03;12.07;;;4.75;;
43877;SDS011;29815;48.184;11.268;2023-10-08T09:22:35;16.15;;;4.65;;
43877;SDS011;29815;48.184;11.268;2023-10-08T09:25:05;10.07;;;3.70;;
43877;SDS011;29815;48.184;11.268;2023-10-08T09:27:36;10.35;;;3.40;;
43877;SDS011;29815;48.184;11.268;2023-10-08T09:30:06;9.52;;;3.78;;
43877;SDS011;29815;48.184;11.268;2023-10-08T09:32:40;12.63;;;4.47;;
43877;SDS011;29815;48.184;11.268;2023-10-08T09:35:12;11.32;;;3.75;;
43877;SDS011;29815;48.184;11.268;2023-10-08T09:37:42;9.77;;;3.63;;
43877;SDS011;29815;48.184;11.268;2023-10-08T09:40:13;21.88;;;4.45;;
43877;SDS011;29815;48.184;11.268;2023-10-08T09:42:48;8.93;;;3.97;;
43877;SDS011;29815;48.184;11.268;2023-10-08T09:45:19;11.85;;;4.50;;
43877;SDS011;29815;48.184;11.268;2023-10-08T09:47:52;9.93;;;3.60;;
43877;SDS011;29815;48.184;11.268;2023-10-08T09:50:26;7.68;;;3.72;;
43877;SDS011;29815;48.184;11.268;2023-10-08T09:53:01;13.45;;;4.03;;
43877;SDS011;29815;48.184;11.268;2023-10-08T09:55:44;12.50;;;4.45;;
43877;SDS011;29815;48.184;11.268;2023-10-08T09:58:17;10.35;;;4.07;;
43877;SDS011;29815;48.184;11.268;2023-10-08T10:00:47;11.57;;;3.60;;
43877;SDS011;29815;48.184;11.268;2023-10-08T10:03:23;7.88;;;3.10;;
43877;SDS011;29815;48.184;11.268;2023-10-08T10:05:55;11.40;;;3.50;;
43877;SDS011;29815;48.184;11.268;2023-10-08T10:08:28;10.23;;;3.72;;
43877;SDS011;29815;48.184;11.268;2023-10-08T10:11:03;17.30;;;4.45;;
43877;SDS011;29815;48.184;11.268;2023-10-08T10:13:34;13.80;;;4.10;;
43877;SDS011;29815;48.184;11.268;2023-10-08T10:16:09;8.02;;;3.95;;
43877;SDS011;29815;48.184;11.268;2023-10-08T10:18:44;14.57;;;4.38;;
43877;SDS011;29815;48.184;11.268;2023-10-08T10:21:24;8.38;;;4.38;;
43877;SDS011;29815;48.184;11.268;2023-10-08T10:24:00;6.78;;;3.47;;
43877;SDS011;29815;48.184;11.268;2023-10-08T10:26:33;11.57;;;3.90;;
43877;SDS011;29815;48.184;11.268;2023-10-08T10:29:18;10.60;;;3.85;;
43877;SDS011;29815;48.184;11.268;2023-10-08T10:31:54;8.40;;;3.55;;
43877;SDS011;29815;48.184;11.268;2023-10-08T10:34:26;10.93;;;4.68;;
43877;SDS011;29815;48.184;11.268;2023-10-08T10:36:56;13.23;;;4.13;;
43877;SDS011;29815;48.184;11.268;2023-10-08T10:39:30;11.50;;;4.55;;
43877;SDS011;29815;48.184;11.268;2023-10-08T10:42:02;15.25;;;4.47;;
43877;SDS011;29815;48.184;11.268;2023-10-08T10:44:34;9.85;;;4.22;;
43877;SDS011;29815;48.184;11.268;2023-10-08T10:47:06;8.10;;;3.97;;
43877;SDS011;29815;48.184;11.268;2023-10-08T10:49:54;8.60;;;3.65;;
43877;SDS011;29815;48.184;11.268;2023-10-08T10:52:49;12.23;;;4.13;;
43877;SDS011;29815;48.184;11.268;2023-10-08T10:55:21;11.10;;;4.28;;
43877;SDS011;29815;48.184;11.268;2023-10-08T10:57:59;10.60;;;3.90;;
43877;SDS011;29815;48.184;11.268;2023-10-08T11:00:41;9.18;;;3.63;;
43877;SDS011;29815;48.184;11.268;2023-10-08T11:03:24;9.50;;;4.22;;
43877;SDS011;29815;48.184;11.268;2023-10-08T11:05:56;11.67;;;4.33;;
43877;SDS011;29815;48.184;11.268;2023-10-08T11:08:35;11.10;;;3.83;;
43877;SDS011;29815;48.184;11.268;2023-10-08T11:11:05;12.98;;;4.00;;
43877;SDS011;29815;48.184;11.268;2023-10-08T11:13:35;16.92;;;5.20;;
43877;SDS011;29815;48.184;11.268;2023-10-08T11:16:08;10.50;;;4.78;;
43877;SDS011;29815;48.184;11.268;2023-10-08T11:18:43;18.20;;;4.65;;
43877;SDS011;29815;48.184;11.268;2023-10-08T11:21:18;10.55;;;4.57;;
43877;SDS011;29815;48.184;11.268;2023-10-08T11:23:53;9.95;;;3.95;;
43877;SDS011;29815;48.184;11.268;2023-10-08T11:26:26;11.70;;;3.50;;
43877;SDS011;29815;48.184;11.268;2023-10-08T11:29:07;8.23;;;3.28;;
43877;SDS011;29815;48.184;11.268;2023-10-08T11:31:42;12.50;;;3.65;;
43877;SDS011;29815;48.184;11.268;2023-10-08T11:34:12;11.45;;;4.60;;
43877;SDS011;29815;48.184;11.268;2023-10-08T11:36:42;15.40;;;4.00;;
43877;SDS011;29815;48.184;11.268;2023-10-08T11:39:22;11.98;;;4.65;;
43877;SDS011;29815;48.184;11.268;2023-10-08T11:41:58;15.70;;;4.60;;
43877;SDS011;29815;48.184;11.268;2023-10-08T11:44:33;12.93;;;4.75;;
43877;SDS011;29815;48.184;11.268;2023-10-08T11:47:05;12.80;;;3.65;;
43877;SDS011;29815;48.184;11.268;2023-10-08T11:49:40;15.45;;;3.75;;
43877;SDS011;29815;48.184;11.268;2023-10-08T11:52:15;16.30;;;4.88;;
43877;SDS011;29815;48.184;11.268;2023-10-08T11:54:50;15.02;;;5.40;;
43877;SDS011;29815;48.184;11.268;2023-10-08T11:57:21;11.40;;;3.63;;
43877;SDS011;29815;48.184;11.268;2023-10-08T11:59:53;15.05;;;4.57;;
43877;SDS011;29815;48.184;11.268;2023-10-08T12:02:25;8.85;;;3.75;;
43877;SDS011;29815;48.184;11.268;2023-10-08T12:04:54;13.93;;;4.43;;
43877;SDS011;29815;48.184;11.268;2023-10-08T12:07:25;12.63;;;4.45;;
43877;SDS011;29815;48.184;11.268;2023-10-08T12:09:57;12.77;;;3.97;;
43877;SDS011;29815;48.184;11.268;2023-10-08T12:12:26;13.02;;;4.95;;
43877;SDS011;29815;48.184;11.268;2023-10-08T12:14:58;12.02;;;4.28;;
43877;SDS011;29815;48.184;11.268;2023-10-08T12:17:31;14.27;;;4.10;;
43877;SDS011;29815;48.184;11.268;2023-10-08T12:20:07;14.25;;;5.15;;
43877;SDS011;29815;48.184;11.268;2023-10-08T12:22:51;11.85;;;3.78;;
43877;SDS011;29815;48.184;11.268;2023-10-08T12:25:22;10.63;;;4.10;;
43877;SDS011;29815;48.184;11.268;2023-10-08T12:27:51;10.93;;;4.50;;
43877;SDS011;29815;48.184;11.268;2023-10-08T12:30:21;8.20;;;3.50;;
43877;SDS011;29815;48.184;11.268;2023-10-08T12:32:58;14.05;;;4.10;;
43877;SDS011;29815;48.184;11.268;2023-10-08T12:35:29;14.98;;;3.92;;
43877;SDS011;29815;48.184;11.268;2023-10-08T12:37:59;9.98;;;4.05;;
43877;SDS011;29815;48.184;11.268;2023-10-08T12:40:30;12.82;;;4.13;;
43877;SDS011;29815;48.184;11.268;2023-10-08T12:43:09;11.63;;;3.70;;
43877;SDS011;29815;48.184;11.268;2023-10-08T12:45:39;12.55;;;4.57;;
43877;SDS011;29815;48.184;11.268;2023-10-08T12:48:09;11.65;;;4.35;;
43877;SDS011;29815;48.184;11.268;2023-10-08T12:53:11;15.48;;;4.03;;
43877;SDS011;29815;48.184;11.268;2023-10-08T12:55:44;11.27;;;3.38;;
43877;SDS011;29815;48.184;11.268;2023-10-08T12:58:16;13.05;;;4.35;;
43877;SDS011;29815;48.184;11.268;2023-10-08T13:00:46;12.88;;;4.00;;
43877;SDS011;29815;48.184;11.268;2023-10-08T13:03:24;8.30;;;4.25;;
43877;SDS011;29815;48.184;11.268;2023-10-08T13:05:59;12.38;;;4.55;;
43877;SDS011;29815;48.184;11.268;2023-10-08T13:08:32;8.27;;;3.22;;
43877;SDS011;29815;48.184;11.268;2023-10-08T13:11:03;12.77;;;3.90;;
43877;SDS011;29815;48.184;11.268;2023-10-08T13:13:33;17.92;;;5.53;;
43877;SDS011;29815;48.184;11.268;2023-10-08T13:16:04;10.32;;;5.40;;
43877;SDS011;29815;48.184;11.268;2023-10-08T13:18:35;15.13;;;4.75;;
43877;SDS011;29815;48.184;11.268;2023-10-08T13:21:05;12.48;;;5.22;;
43877;SDS011;29815;48.184;11.268;2023-10-08T13:23:37;12.38;;;3.70;;
43877;SDS011;29815;48.184;11.268;2023-10-08T13:26:08;10.85;;;4.32;;
43877;SDS011;29815;48.184;11.268;2023-10-08T13:28:44;11.15;;;3.92;;
43877;SDS011;29815;48.184;11.268;2023-10-08T13:31:14;15.05;;;3.72;;
43877;SDS011;29815;48.184;11.268;2023-10-08T13:33:45;15.82;;;4.32;;
43877;SDS011;29815;48.184;11.268;2023-10-08T13:36:19;10.55;;;4.55;;
43877;SDS011;29815;48.184;11.268;2023-10-08T13:38:49;11.02;;;4.15;;
43877;SDS011;29815;48.184;11.268;2023-10-08T13:41:21;12.77;;;3.72;;
43877;SDS011;29815;48.184;11.268;2023-10-08T13:43:51;15.45;;;4.75;;
43877;SDS011;29815;48.184;11.268;2023-10-08T13:46:21;13.57;;;4.10;;
43877;SDS011;29815;48.184;11.268;2023-10-08T13:48:51;11.35;;;3.88;;
43877;SDS011;29815;48.184;11.268;2023-10-08T13:51:21;19.50;;;4.93;;
43877;SDS011;29815;48.184;11.268;2023-10-08T13:56:29;8.70;;;3.50;;
43877;SDS011;29815;48.184;11.268;2023-10-08T13:58:59;9.18;;;4.80;;
43877;SDS011;29815;48.184;11.268;2023-10-08T14:01:40;13.10;;;4.72;;
43877;SDS011;29815;48.184;11.268;2023-10-08T14:04:14;13.65;;;4.43;;
43877;SDS011;29815;48.184;11.268;2023-10-08T14:06:47;8.30;;;3.28;;
43877;SDS011;29815;48.184;11.268;2023-10-08T14:09:20;8.05;;;3.90;;
43877;SDS011;29815;48.184;11.268;2023-10-08T14:12:01;13.75;;;4.78;;
43877;SDS011;29815;48.184;11.268;2023-10-08T14:14:31;12.75;;;4.50;;
43877;SDS011;29815;48.184;11.268;2023-10-08T14:17:02;10.05;;;4.10;;
43877;SDS011;29815;48.184;11.268;2023-10-08T14:19:35;12.45;;;4.18;;
43877;SDS011;29815;48.184;11.268;2023-10-08T14:22:13;13.27;;;4.80;;
43877;SDS011;29815;48.184;11.268;2023-10-08T14:24:44;7.93;;;4.28;;
43877;SDS011;29815;48.184;11.268;2023-10-08T14:27:15;11.70;;;3.97;;
43877;SDS011;29815;48.184;11.268;2023-10-08T14:29:52;9.77;;;4.00;;
43877;SDS011;29815;48.184;11.268;2023-10-08T14:32:23;10.32;;;4.72;;
43877;SDS011;29815;48.184;11.268;2023-10-08T14:34:54;11.88;;;5.05;;
43877;SDS011;29815;48.184;11.268;2023-10-08T14:37:41;7.35;;;3.30;;
43877;SDS011;29815;48.184;11.268;2023-10-08T14:40:28;12.35;;;5.75;;
43877;SDS011;29815;48.184;11.268;2023-10-08T14:43:25;10.13;;;4.78;;
43877;SDS011;29815;48.184;11.268;2023-10-08T14:45:58;14.38;;;6.15;;
43877;SDS011;29815;48.184;11.268;2023-10-08T14:48:32;12.93;;;4.80;;
43877;SDS011;29815;48.184;11.268;2023-10-08T14:51:03;12.07;;;5.25;;
43877;SDS011;29815;48.184;11.268;2023-10-08T14:53:34;14.18;;;4.55;;
43877;SDS011;29815;48.184;11.268;2023-10-08T14:56:06;13.75;;;4.97;;
43877;SDS011;29815;48.184;11.268;2023-10-08T14:58:37;15.48;;;5.03;;
43877;SDS011;29815;48.184;11.268;2023-10-08T15:01:08;10.82;;;4.72;;
43877;SDS011;29815;48.184;11.268;2023-10-08T15:03:40;16.35;;;6.22;;
43877;SDS011;29815;48.184;11.268;2023-10-08T15:06:10;17.02;;;4.22;;
43877;SDS011;29815;48.184;11.268;2023-10-08T15:08:40;11.27;;;4.13;;
43877;SDS011;29815;48.184;11.268;2023-10-08T15:11:10;11.70;;;5.65;;
43877;SDS011;29815;48.184;11.268;2023-10-08T15:13:41;15.60;;;5.05;;
43877;SDS011;29815;48.184;11.268;2023-10-08T15:16:13;15.82;;;4.63;;
43877;SDS011;29815;48.184;11.268;2023-10-08T15:18:43;15.70;;;4.60;;
43877;SDS011;29815;48.184;11.268;2023-10-08T15:21:12;17.73;;;4.78;;
43877;SDS011;29815;48.184;11.268;2023-10-08T15:23:42;17.63;;;4.00;;
43877;SDS011;29815;48.184;11.268;2023-10-08T15:26:13;12.48;;;4.20;;
43877;SDS011;29815;48.184;11.268;2023-10-08T15:28:46;14.23;;;4.95;;
43877;SDS011;29815;48.184;11.268;2023-10-08T15:31:15;19.45;;;4.53;;
43877;SDS011;29815;48.184;11.268;2023-10-08T15:33:45;20.00;;;4.53;;
43877;SDS011;29815;48.184;11.268;2023-10-08T15:36:14;14.10;;;4.68;;
43877;SDS011;29815;48.184;11.268;2023-10-08T15:38:44;12.02;;;4.90;;